Time;durP1;ratioP1;P1;durP2;ratioP2;P2;SDS_P1;SDS_P2;PMS_P1;PMS_P2;Temp;Humidity;BMP_temperature;BMP_pressure;BME280_temperature;BME280_humidity;BME280_pressure;Samples;Min_cycle;Max_cycle;Signal;HPM_P1;HPM_P2
2021/01/23 00:01:22;;;;;;;;;;;;;;;22.28;25.21;97729.28;5104015;28;1134;-75
2021/01/23 00:03:47;;;;;;;;;;;;;;;22.14;25.33;97718.44;5104267;28;1906;-75
2021/01/23 00:06:13;;;;;;;;;;;;;;;22.22;25.33;97713.28;5104786;28;668;-75
2021/01/23 00:08:38;;;;;;;;;;;;;;;21.76;25.88;97710.72;5104035;28;847;-75
2021/01/23 00:11:04;;;;;;;;;;;;;;;21.46;26.10;97722.59;5103890;28;1006;-75
2021/01/23 00:13:29;;;;;;;;;;;;;;;21.55;26.32;97725.53;5086216;28;852;-75
2021/01/23 00:15:55;;;;;;;;;;;;;;;21.93;25.92;97719.09;5103960;28;967;-75
2021/01/23 00:18:20;;;;;;;;;;;;;;;22.04;25.70;97725.22;5103846;28;697;-75
2021/01/23 00:20:46;;;;;;;;;;;;;;;22.21;25.36;97718.19;5104262;28;657;-75
2021/01/23 00:23:11;;;;;;;;;;;;;;;22.22;25.06;97725.41;5104245;28;1898;-75
2021/01/23 00:25:36;;;;;;;;;;;;;;;21.93;25.52;97719.09;5103495;28;944;-75
2021/01/23 00:28:03;;;;;;;;;;;;;;;21.56;25.96;97735.63;5103559;28;878;-75
2021/01/23 00:30:28;;;;;;;;;;;;;;;21.33;26.61;97734.66;5103580;28;892;-75
2021/01/23 00:33:21;;;;;;;;;;;;;;;21.85;25.87;97718.53;5103658;28;718;-74
2021/01/23 00:35:46;;;;;;;;;;;;;;;21.96;25.82;97721.00;5103802;28;621;-75
2021/01/23 00:38:12;;;;;;;;;;;;;;;22.16;25.62;97727.25;5103446;28;757;-75
2021/01/23 00:40:37;;;;;;;;;;;;;;;21.96;25.52;97718.16;5103760;28;888;-75
2021/01/23 00:43:03;;;;;;;;;;;;;;;21.53;26.07;97731.66;5103326;28;1898;-75
2021/01/23 00:45:28;;;;;;;;;;;;;;;21.44;26.27;97727.91;5103410;28;714;-75
2021/01/23 00:47:54;;;;;;;;;;;;;;;21.74;26.12;97730.19;5103722;28;666;-75
2021/01/23 00:50:19;;;;;;;;;;;;;;;21.97;25.83;97717.75;5103232;28;702;-75
2021/01/23 00:52:45;;;;;;;;;;;;;;;22.27;25.21;97722.00;5103432;28;890;-75
2021/01/23 00:55:10;;;;;;;;;;;;;;;22.09;25.55;97710.47;5103009;28;981;-75
2021/01/23 00:57:39;;;;;;;;;;;;;;;21.93;25.49;97710.59;5102831;28;821;-75
2021/01/23 01:00:06;;;;;;;;;;;;;;;21.65;25.79;97715.13;5085558;28;1067;-75
2021/01/23 01:02:35;;;;;;;;;;;;;;;21.69;26.17;97710.94;5069676;28;1963;-75
2021/01/23 01:05:01;;;;;;;;;;;;;;;22.07;25.38;97707.28;5102959;28;610;-75
2021/01/23 01:07:26;;;;;;;;;;;;;;;22.15;25.52;97702.22;5103098;28;685;-75
2021/01/23 01:09:52;;;;;;;;;;;;;;;22.19;25.37;97711.41;5102705;28;942;-75
2021/01/23 01:12:17;;;;;;;;;;;;;;;21.94;25.63;97700.84;5102571;28;904;-75
2021/01/23 01:14:43;;;;;;;;;;;;;;;21.75;26.02;97703.44;5102712;28;881;-75
2021/01/23 01:17:08;;;;;;;;;;;;;;;21.29;26.67;97704.84;5103003;28;657;-75
2021/01/23 01:19:34;;;;;;;;;;;;;;;21.95;25.79;97702.44;5103120;28;650;-75
2021/01/23 01:21:59;;;;;;;;;;;;;;;22.28;25.22;97700.94;5102833;28;714;-75
2021/01/23 01:24:24;;;;;;;;;;;;;;;22.39;24.99;97700.56;5102300;28;1901;-74
2021/01/23 01:26:50;;;;;;;;;;;;;;;22.17;25.25;97697.66;5102502;28;824;-75
2021/01/23 01:29:15;;;;;;;;;;;;;;;21.76;26.04;97698.56;5102442;28;1009;-75
2021/01/23 01:31:41;;;;;;;;;;;;;;;21.48;26.15;97703.91;5102945;28;698;-74
2021/01/23 01:34:06;;;;;;;;;;;;;;;21.71;26.14;97696.31;5102379;28;656;-74
2021/01/23 01:36:32;;;;;;;;;;;;;;;22.07;25.63;97690.28;5102507;28;654;-75
2021/01/23 01:38:57;;;;;;;;;;;;;;;22.01;25.63;97692.91;5102062;28;1021;-75
2021/01/23 01:41:23;;;;;;;;;;;;;;;22.15;25.47;97691.66;5102226;28;948;-75
2021/01/23 01:43:48;;;;;;;;;;;;;;;22.26;25.20;97686.41;5102124;28;1894;-75
2021/01/23 01:46:13;;;;;;;;;;;;;;;22.24;25.20;97688.16;5102939;28;658;-75
2021/01/23 01:48:39;;;;;;;;;;;;;;;21.84;25.63;97680.91;5084755;28;688;-75
2021/01/23 01:51:04;;;;;;;;;;;;;;;21.38;26.35;97692.91;5102676;28;597;-74
2021/01/23 01:53:30;;;;;;;;;;;;;;;21.36;26.89;97687.72;5101670;28;954;-75
2021/01/23 01:55:55;;;;;;;;;;;;;;;22.06;25.60;97688.69;5101971;28;801;-75
2021/01/23 01:58:21;;;;;;;;;;;;;;;22.09;25.61;97687.81;5084783;28;956;-75
2021/01/23 02:00:46;;;;;;;;;;;;;;;22.09;25.65;97687.81;5102053;28;1002;-75
2021/01/23 02:03:33;;;;;;;;;;;;;;;22.03;25.46;97681.91;5101716;28;1977;-75
2021/01/23 02:06:05;;;;;;;;;;;;;;;21.57;26.05;97680.59;5102330;28;649;-75
2021/01/23 02:08:49;;;;;;;;;;;;;;;21.21;26.78;97687.31;5100695;28;919;-75
2021/01/23 02:11:33;;;;;;;;;;;;;;;21.62;26.36;97671.53;5101821;28;881;-75
2021/01/23 02:14:08;;;;;;;;;;;;;;;22.09;25.42;97673.63;5101748;28;626;-75
2021/01/23 02:16:34;;;;;;;;;;;;;;;22.20;25.45;97676.13;5102165;28;660;-75
2021/01/23 02:19:02;;;;;;;;;;;;;;;22.22;25.54;97668.75;5084269;28;702;-75
2021/01/23 02:21:47;;;;;;;;;;;;;;;21.82;25.74;97666.41;5101672;28;681;-75
2021/01/23 02:24:12;;;;;;;;;;;;;;;21.37;26.58;97671.53;5101365;28;1914;-75
2021/01/23 02:26:43;;;;;;;;;;;;;;;21.37;26.82;97671.53;5083821;28;817;-75
2021/01/23 02:29:15;;;;;;;;;;;;;;;22.07;25.78;97656.28;5101448;28;594;-75
2021/01/23 02:31:41;;;;;;;;;;;;;;;22.19;25.51;97669.69;5101490;28;669;-75
2021/01/23 02:34:07;;;;;;;;;;;;;;;22.19;25.74;97654.72;5084122;28;1273;-75
2021/01/23 02:36:32;;;;;;;;;;;;;;;22.09;25.38;97642.47;5084107;28;888;-75
2021/01/23 02:38:58;;;;;;;;;;;;;;;21.69;26.28;97648.63;5100923;28;832;-75
2021/01/23 02:41:23;;;;;;;;;;;;;;;21.41;26.57;97660.88;5083568;28;877;-75
2021/01/23 02:43:49;;;;;;;;;;;;;;;22.07;25.80;97659.13;5083488;28;1897;-75
2021/01/23 02:46:15;;;;;;;;;;;;;;;22.36;25.15;97659.75;5101629;28;714;-75
2021/01/23 02:48:41;;;;;;;;;;;;;;;22.45;25.17;97655.44;5083722;28;678;-75
2021/01/23 02:51:08;;;;;;;;;;;;;;;22.33;25.17;97654.22;5101406;28;899;-75
2021/01/23 02:53:34;;;;;;;;;;;;;;;21.98;25.76;97656.22;5100591;28;962;-75
2021/01/23 02:56:14;;;;;;;;;;;;;;;21.57;26.26;97652.28;5083420;28;914;-75
2021/01/23 02:58:39;;;;;;;;;;;;;;;21.61;26.54;97661.47;5083242;28;603;-75
2021/01/23 03:01:05;;;;;;;;;;;;;;;22.18;25.61;97651.09;5083440;28;1129;-75
2021/01/23 03:03:44;;;;;;;;;;;;;;;22.15;25.65;97645.53;5083524;28;1913;-75
2021/01/23 03:06:09;;;;;;;;;;;;;;;22.20;25.45;97642.13;5101103;28;665;-75
2021/01/23 03:08:35;;;;;;;;;;;;;;;22.30;25.46;97647.41;5083008;28;1066;-75
2021/01/23 03:11:01;;;;;;;;;;;;;;;21.82;26.04;97638.09;5083287;28;932;-75
2021/01/23 03:13:26;;;;;;;;;;;;;;;21.45;26.57;97641.72;5100696;28;927;-75
2021/01/23 03:15:51;;;;;;;;;;;;;;;21.59;26.35;97632.78;5101014;28;642;-75
2021/01/23 03:18:17;;;;;;;;;;;;;;;22.13;25.72;97623.34;5100529;28;702;-75
2021/01/23 03:20:42;;;;;;;;;;;;;;;22.07;25.76;97627.94;5101328;28;642;-75
2021/01/23 03:23:08;;;;;;;;;;;;;;;22.13;25.54;97631.84;5100229;28;1882;-75
2021/01/23 03:25:33;;;;;;;;;;;;;;;21.75;26.27;97637.53;5100463;28;939;-75
2021/01/23 03:27:59;;;;;;;;;;;;;;;21.29;26.47;97622.78;5100407;28;1046;-75
2021/01/23 03:30:25;;;;;;;;;;;;;;;21.62;26.60;97623.41;5100564;28;637;-75
2021/01/23 03:32:52;;;;;;;;;;;;;;;21.99;25.74;97626.63;5100631;28;607;-75
2021/01/23 03:35:18;;;;;;;;;;;;;;;22.08;25.67;97619.00;5100536;28;665;-76
2021/01/23 03:37:43;;;;;;;;;;;;;;;22.26;25.59;97609.91;5100312;28;947;-76
2021/01/23 03:40:09;;;;;;;;;;;;;;;21.83;26.09;97625.53;5100329;28;888;-75
2021/01/23 03:42:35;;;;;;;;;;;;;;;21.58;26.37;97612.19;5100838;28;1981;-75
2021/01/23 03:45:00;;;;;;;;;;;;;;;21.43;26.91;97621.59;5100708;28;630;-75
2021/01/23 03:47:26;;;;;;;;;;;;;;;21.95;26.06;97625.94;5100583;28;629;-75
2021/01/23 03:49:51;;;;;;;;;;;;;;;22.08;25.92;97623.88;5100550;28;701;-75
2021/01/23 03:52:16;;;;;;;;;;;;;;;22.23;25.57;97630.69;5100227;28;939;-75
2021/01/23 03:54:42;;;;;;;;;;;;;;;22.26;25.19;97617.63;5099912;28;904;-75
2021/01/23 03:57:08;;;;;;;;;;;;;;;21.74;25.91;97611.25;5083067;28;867;-75
2021/01/23 03:59:33;;;;;;;;;;;;;;;21.35;26.61;97618.22;5100154;28;1021;-75
2021/01/23 04:01:59;;;;;;;;;;;;;;;21.58;26.53;97628.38;5100782;28;987;-75
2021/01/23 04:04:25;;;;;;;;;;;;;;;22.02;25.87;97620.84;5100132;28;1905;-75
2021/01/23 04:06:50;;;;;;;;;;;;;;;21.95;25.96;97617.44;5099971;28;959;-77
2021/01/23 04:09:15;;;;;;;;;;;;;;;22.11;25.72;97614.47;5099779;28;852;-77
2021/01/23 04:11:41;;;;;;;;;;;;;;;22.19;25.72;97610.16;5100435;28;898;-77
2021/01/23 04:14:06;;;;;;;;;;;;;;;21.99;25.79;97613.25;5100144;28;677;-75
2021/01/23 04:16:32;;;;;;;;;;;;;;;21.51;26.67;97608.81;5100134;28;716;-74
2021/01/23 04:18:57;;;;;;;;;;;;;;;21.59;26.52;97612.97;5100132;28;665;-75
2021/01/23 04:21:23;;;;;;;;;;;;;;;21.96;26.00;97604.88;5099997;28;856;-75
2021/01/23 04:23:48;;;;;;;;;;;;;;;22.15;25.77;97612.31;5099518;28;1897;-75
2021/01/23 04:26:14;;;;;;;;;;;;;;;22.09;25.79;97608.47;5100427;28;992;-75
2021/01/23 04:28:39;;;;;;;;;;;;;;;22.09;25.74;97608.47;5099806;28;678;-75
2021/01/23 04:31:04;;;;;;;;;;;;;;;21.76;26.12;97614.44;5100845;28;693;-75
2021/01/23 04:33:39;;;;;;;;;;;;;;;21.23;26.90;97614.06;5103570;28;670;-75
2021/01/23 04:36:08;;;;;;;;;;;;;;;21.75;26.20;97618.50;5103843;28;963;-75
2021/01/23 04:38:33;;;;;;;;;;;;;;;21.92;26.20;97621.22;5103284;28;955;-75
2021/01/23 04:40:59;;;;;;;;;;;;;;;22.20;25.75;97620.25;5104265;28;669;-75
2021/01/23 04:43:24;;;;;;;;;;;;;;;22.35;25.56;97621.31;5085791;28;1902;-75
2021/01/23 04:45:50;;;;;;;;;;;;;;;21.58;26.49;97622.72;5103643;28;678;-76
2021/01/23 04:48:16;;;;;;;;;;;;;;;21.55;26.36;97617.94;5103479;28;623;-75
2021/01/23 04:50:41;;;;;;;;;;;;;;;21.16;27.13;97622.78;5103679;28;1077;-75
2021/01/23 04:53:07;;;;;;;;;;;;;;;21.82;26.43;97623.94;5103289;28;812;-75
2021/01/23 04:55:32;;;;;;;;;;;;;;;22.15;25.63;97623.66;5103438;28;994;-75
2021/01/23 04:57:57;;;;;;;;;;;;;;;22.24;25.60;97620.13;5103711;28;614;-75
2021/01/23 05:00:23;;;;;;;;;;;;;;;22.20;25.57;97614.56;5085462;28;989;-75
2021/01/23 05:02:58;;;;;;;;;;;;;;;22.04;25.88;97611.88;5103364;28;1918;-74
2021/01/23 05:05:24;;;;;;;;;;;;;;;21.25;27.11;97603.13;5102923;28;1061;-75
2021/01/23 05:07:49;;;;;;;;;;;;;;;21.26;26.80;97604.69;5102709;28;894;-74
2021/01/23 05:10:23;;;;;;;;;;;;;;;21.45;26.89;97613.44;5102927;28;841;-75
2021/01/23 05:12:51;;;;;;;;;;;;;;;21.87;26.16;97604.78;5102962;28;662;-75
2021/01/23 05:15:23;;;;;;;;;;;;;;;21.93;25.81;97602.97;5102937;28;670;-75
2021/01/23 05:17:53;;;;;;;;;;;;;;;22.33;25.42;97606.84;5102902;28;658;-75
2021/01/23 05:20:31;;;;;;;;;;;;;;;22.42;25.48;97591.13;5102687;28;854;-75
2021/01/23 05:22:57;;;;;;;;;;;;;;;22.03;25.73;97590.47;5102482;28;1975;-75
2021/01/23 05:25:26;;;;;;;;;;;;;;;21.54;26.49;97596.56;5102723;28;611;-75
2021/01/23 05:27:52;;;;;;;;;;;;;;;21.43;26.51;97590.44;5102568;28;688;-75
2021/01/23 05:30:17;;;;;;;;;;;;;;;21.76;26.43;97586.13;5102674;28;610;-74
2021/01/23 05:32:43;;;;;;;;;;;;;;;22.04;26.00;97594.88;5102741;28;621;-75
2021/01/23 05:35:12;;;;;;;;;;;;;;;22.09;25.87;97585.78;5102329;28;1035;-75
2021/01/23 05:37:37;;;;;;;;;;;;;;;22.08;25.80;97584.22;5102517;28;852;-75
2021/01/23 05:40:03;;;;;;;;;;;;;;;22.18;25.68;97587.97;5102285;28;962;-74
2021/01/23 05:42:36;;;;;;;;;;;;;;;21.69;25.95;97591.22;5101712;28;725;-75
2021/01/23 05:45:28;;;;;;;;;;;;;;;21.39;26.72;97598.25;5084899;28;1181;-74
2021/01/23 05:47:53;;;;;;;;;;;;;;;21.91;26.31;97591.28;5099260;28;1347;-74
2021/01/23 05:50:19;;;;;;;;;;;;;;;22.18;25.78;97588.75;5102162;28;852;-75
2021/01/23 05:52:44;;;;;;;;;;;;;;;22.27;25.69;97590.84;5102625;28;880;-75
2021/01/23 05:55:10;;;;;;;;;;;;;;;22.26;25.56;97590.06;5102037;28;1004;-75
2021/01/23 05:57:35;;;;;;;;;;;;;;;22.35;25.18;97587.31;5102296;28;717;-75
2021/01/23 06:00:01;;;;;;;;;;;;;;;21.74;26.14;97577.28;5084419;28;984;-74
2021/01/23 06:02:29;;;;;;;;;;;;;;;21.23;26.98;97580.13;5101916;28;618;-74
2021/01/23 06:04:55;;;;;;;;;;;;;;;21.54;26.78;97591.69;5101529;28;1906;-74
2021/01/23 06:07:56;;;;;;;;;;;;;;;21.96;25.75;97597.16;5101949;28;963;-74
2021/01/23 06:10:21;;;;;;;;;;;;;;;22.10;25.86;97593.03;5068112;28;1315;-73
2021/01/23 06:12:47;;;;;;;;;;;;;;;22.16;25.48;97587.63;5101754;28;626;-74
2021/01/23 06:15:31;;;;;;;;;;;;;;;21.72;26.19;97584.66;5101606;28;598;-73
2021/01/23 06:17:56;;;;;;;;;;;;;;;21.45;26.58;97582.28;5101572;28;657;-71
2021/01/23 06:20:40;;;;;;;;;;;;;;;21.67;26.25;97583.19;5101419;28;993;-75
2021/01/23 06:23:09;;;;;;;;;;;;;;;22.12;25.90;97576.41;5101502;28;1906;-76
2021/01/23 06:25:50;;;;;;;;;;;;;;;22.01;25.88;97578.78;5101760;28;678;-75
2021/01/23 06:28:16;;;;;;;;;;;;;;;22.27;25.73;97574.63;5101488;28;694;-75
2021/01/23 06:30:41;;;;;;;;;;;;;;;21.99;25.98;97569.97;5084175;28;603;-75
2021/01/23 06:33:22;;;;;;;;;;;;;;;21.52;26.47;97567.91;5101507;28;690;-75
2021/01/23 06:36:10;;;;;;;;;;;;;;;21.45;26.64;97573.81;5101457;28;1068;-75
2021/01/23 06:38:35;;;;;;;;;;;;;;;21.76;26.38;97563.47;5100865;28;946;-75
2021/01/23 06:41:19;;;;;;;;;;;;;;;21.96;26.12;97565.19;5101483;28;681;-75
2021/01/23 06:44:03;;;;;;;;;;;;;;;22.07;25.94;97568.44;5101102;28;1898;-75
2021/01/23 06:46:28;;;;;;;;;;;;;;;22.07;26.00;97571.28;5101447;28;638;-75
2021/01/23 06:49:03;;;;;;;;;;;;;;;21.41;26.95;97564.66;5101057;28;734;-75
2021/01/23 06:51:28;;;;;;;;;;;;;;;21.08;27.38;97567.66;5083565;28;868;-75
2021/01/23 06:54:09;;;;;;;;;;;;;;;21.78;26.51;97557.34;5100853;28;959;-75
2021/01/23 06:56:34;;;;;;;;;;;;;;;21.99;26.31;97564.31;5101227;28;654;-75
2021/01/23 06:59:00;;;;;;;;;;;;;;;22.26;25.71;97555.25;5083552;28;706;-75
2021/01/23 07:01:25;;;;;;;;;;;;;;;22.29;25.41;97555.16;5100863;28;1004;-75
2021/01/23 07:04:00;;;;;;;;;;;;;;;21.68;26.41;97555.66;5100718;28;1968;-75
2021/01/23 07:06:39;;;;;;;;;;;;;;;21.39;26.76;97561.47;5100811;28;812;-75
2021/01/23 07:09:04;;;;;;;;;;;;;;;21.85;26.29;97557.88;5083253;28;916;-75
2021/01/23 07:11:30;;;;;;;;;;;;;;;21.97;26.26;97563.97;5083368;28;690;-75
2021/01/23 07:13:57;;;;;;;;;;;;;;;22.09;25.98;97565.97;5100901;28;586;-75
2021/01/23 07:16:22;;;;;;;;;;;;;;;22.08;26.07;97561.56;5100968;28;689;-75
2021/01/23 07:18:54;;;;;;;;;;;;;;;21.86;26.23;97561.50;5100571;28;594;-75
2021/01/23 07:21:23;;;;;;;;;;;;;;;21.53;26.59;97549.69;5100426;28;1006;-75
2021/01/23 07:23:54;;;;;;;;;;;;;;;21.43;27.03;97550.84;5100288;28;1961;-75
2021/01/23 07:26:20;;;;;;;;;;;;;;;22.03;26.01;97550.81;5100899;28;653;-75
2021/01/23 07:28:57;;;;;;;;;;;;;;;22.14;25.94;97553.28;5100502;28;668;-75
2021/01/23 07:31:23;;;;;;;;;;;;;;;22.15;25.82;97554.88;5100526;28;748;-75
2021/01/23 07:34:07;;;;;;;;;;;;;;;22.20;26.00;97548.59;5100449;28;657;-75
2021/01/23 07:36:35;;;;;;;;;;;;;;;21.44;26.87;97543.91;5083801;28;841;-75
2021/01/23 07:39:01;;;;;;;;;;;;;;;21.54;26.57;97546.38;5100104;28;947;-75
2021/01/23 07:41:37;;;;;;;;;;;;;;;21.74;26.73;97537.63;5100668;28;649;-75
2021/01/23 07:44:04;;;;;;;;;;;;;;;22.05;25.96;97546.25;5100270;28;1898;-75
2021/01/23 07:46:33;;;;;;;;;;;;;;;22.00;26.40;97537.53;5100629;28;602;-75
2021/01/23 07:48:59;;;;;;;;;;;;;;;22.13;25.92;97546.84;5100348;28;701;-75
2021/01/23 07:51:25;;;;;;;;;;;;;;;21.68;26.63;97545.13;5100122;28;793;-75
2021/01/23 07:54:09;;;;;;;;;;;;;;;21.42;26.79;97543.59;5082509;28;887;-75
2021/01/23 07:56:35;;;;;;;;;;;;;;;21.69;26.88;97529.72;5100528;28;650;-75
2021/01/23 07:59:01;;;;;;;;;;;;;;;22.14;26.20;97542.75;5100415;28;594;-76
2021/01/23 08:01:26;;;;;;;;;;;;;;;22.11;26.00;97540.81;5100496;28;983;-76
2021/01/23 08:07:28;;;;;;;;;;;;;;;21.67;26.72;97540.72;5102297;28;833;-75
2021/01/23 08:10:12;;;;;;;;;;;;;;;21.26;27.08;97542.44;5101201;28;1383;-75
2021/01/23 08:12:38;;;;;;;;;;;;;;;21.87;26.55;97539.66;5104284;28;673;-75
2021/01/23 08:15:04;;;;;;;;;;;;;;;22.16;25.97;97540.22;5104393;28;571;-75
2021/01/23 08:17:36;;;;;;;;;;;;;;;22.12;26.10;97533.09;5104286;28;682;-75
2021/01/23 08:20:01;;;;;;;;;;;;;;;22.00;26.32;97534.72;5104082;28;634;-75
2021/01/23 08:22:27;;;;;;;;;;;;;;;21.68;26.62;97545.13;5103733;28;955;-75
2021/01/23 08:24:52;;;;;;;;;;;;;;;21.58;26.59;97546.28;5103815;28;1910;-75
2021/01/23 08:27:18;;;;;;;;;;;;;;;21.84;26.64;97539.28;5104283;28;1024;-76
2021/01/23 08:29:44;;;;;;;;;;;;;;;22.01;26.36;97542.75;5086210;28;617;-75
2021/01/23 08:32:10;;;;;;;;;;;;;;;22.00;26.41;97540.38;5103990;28;610;-76
2021/01/23 08:34:35;;;;;;;;;;;;;;;21.98;26.10;97545.72;5103911;28;623;-75
2021/01/23 08:37:03;;;;;;;;;;;;;;;21.65;26.71;97534.69;5103680;28;834;-75
2021/01/23 08:39:29;;;;;;;;;;;;;;;21.29;27.22;97535.84;5103241;28;831;-76
2021/01/23 08:41:54;;;;;;;;;;;;;;;21.76;26.87;97534.31;5103760;28;865;-75
2021/01/23 08:44:20;;;;;;;;;;;;;;;21.99;26.32;97539.59;5103820;28;1973;-75
2021/01/23 08:46:45;;;;;;;;;;;;;;;21.98;26.25;97535.19;5103612;28;574;-75
2021/01/23 08:49:11;;;;;;;;;;;;;;;22.03;26.47;97525.31;5103393;28;641;-75
2021/01/23 08:51:37;;;;;;;;;;;;;;;22.03;26.36;97530.97;5103310;28;903;-75
2021/01/23 08:54:03;;;;;;;;;;;;;;;21.65;26.88;97529.03;5085700;28;934;-75
2021/01/23 08:56:29;;;;;;;;;;;;;;;21.42;26.97;97527.41;5103714;28;934;-75
2021/01/23 08:58:54;;;;;;;;;;;;;;;21.52;27.20;97531.91;5103228;28;1077;-74
2021/01/23 09:01:19;;;;;;;;;;;;;;;21.89;26.49;97532.25;5103487;28;1076;-76
2021/01/23 09:03:45;;;;;;;;;;;;;;;22.07;26.39;97525.94;5103313;28;1898;-75
2021/01/23 09:06:11;;;;;;;;;;;;;;;22.23;26.26;97517.31;5103276;28;966;-75
2021/01/23 09:08:36;;;;;;;;;;;;;;;21.78;26.55;97515.66;5085294;28;915;-75
2021/01/23 09:11:02;;;;;;;;;;;;;;;21.43;26.91;97516.88;5103313;28;980;-75
2021/01/23 09:13:27;;;;;;;;;;;;;;;21.46;27.36;97516.75;5103147;28;661;-75
2021/01/23 09:15:54;;;;;;;;;;;;;;;21.81;26.87;97514.75;5103764;28;634;-75
2021/01/23 09:18:19;;;;;;;;;;;;;;;21.99;26.62;97499.16;5102670;28;602;-75
2021/01/23 09:20:45;;;;;;;;;;;;;;;22.00;26.42;97503.56;5102597;28;973;-75
2021/01/23 09:23:10;;;;;;;;;;;;;;;22.09;26.47;97493.09;5102510;28;2025;-75
2021/01/23 09:25:36;;;;;;;;;;;;;;;21.82;26.67;97496.50;5103391;28;958;-75
2021/01/23 09:28:01;;;;;;;;;;;;;;;21.44;27.23;97490.13;5102878;28;674;-75
2021/01/23 09:30:27;;;;;;;;;;;;;;;21.88;26.71;97499.53;5102751;28;626;-75
2021/01/23 09:32:52;;;;;;;;;;;;;;;22.00;26.59;97489.38;5102894;28;658;-75
2021/01/23 09:35:17;;;;;;;;;;;;;;;22.18;26.45;97483.91;5084723;28;924;-75
2021/01/23 09:37:43;;;;;;;;;;;;;;;22.33;25.97;97487.78;5102373;28;828;-76
2021/01/23 09:40:09;;;;;;;;;;;;;;;22.30;26.10;97477.38;5102785;28;849;-75
2021/01/23 09:42:34;;;;;;;;;;;;;;;21.81;26.70;97472.25;5102726;28;672;-75
2021/01/23 09:45:00;;;;;;;;;;;;;;;21.73;27.03;97482.25;5102573;28;1983;-76
2021/01/23 09:47:25;;;;;;;;;;;;;;;21.28;27.49;97472.03;5102699;28;637;-76
2021/01/23 09:49:51;;;;;;;;;;;;;;;22.03;26.91;97480.78;5102279;28;915;-75
2021/01/23 09:52:19;;;;;;;;;;;;;;;22.22;26.24;97458.25;5084561;28;841;-76
2021/01/23 09:54:45;;;;;;;;;;;;;;;22.32;26.39;97468.38;5102180;28;1000;-75
2021/01/23 09:57:10;;;;;;;;;;;;;;;22.02;26.63;97455.72;5102184;28;578;-76
2021/01/23 09:59:37;;;;;;;;;;;;;;;21.61;26.97;97454.78;5102066;28;610;-75
2021/01/23 10:02:03;;;;;;;;;;;;;;;21.30;27.52;97466.75;5102198;28;1016;-75
2021/01/23 10:04:28;;;;;;;;;;;;;;;21.76;27.21;97467.19;5101720;28;1906;-75
2021/01/23 10:06:55;;;;;;;;;;;;;;;22.13;26.71;97466.72;5101937;28;809;-76
2021/01/23 10:09:21;;;;;;;;;;;;;;;22.22;26.24;97459.03;5101839;28;831;-75
2021/01/23 10:11:47;;;;;;;;;;;;;;;22.22;26.28;97459.03;5101941;28;641;-75
2021/01/23 10:14:12;;;;;;;;;;;;;;;21.69;27.29;97467.41;5101936;28;637;-74
2021/01/23 10:16:38;;;;;;;;;;;;;;;21.45;27.58;97452.09;5102010;28;713;-75
2021/01/23 10:19:04;;;;;;;;;;;;;;;21.65;27.55;97461.09;5101737;28;931;-75
2021/01/23 10:21:30;;;;;;;;;;;;;;;22.14;26.50;97457.75;5101920;28;943;-76
2021/01/23 10:23:56;;;;;;;;;;;;;;;22.33;26.37;97467.94;5101413;28;1965;-76
2021/01/23 10:26:21;;;;;;;;;;;;;;;22.28;26.20;97462.88;5084253;28;630;-75
2021/01/23 10:28:47;;;;;;;;;;;;;;;22.05;26.50;97457.63;5100862;28;642;-75
2021/01/23 10:31:12;;;;;;;;;;;;;;;21.32;27.75;97455.75;5101946;28;622;-75
2021/01/23 10:33:38;;;;;;;;;;;;;;;21.37;27.79;97453.59;5101037;28;890;-75
2021/01/23 10:36:03;;;;;;;;;;;;;;;21.52;27.73;97452.66;5101454;28;905;-75
2021/01/23 10:38:29;;;;;;;;;;;;;;;21.91;26.88;97449.66;5101288;28;952;-75
2021/01/23 10:40:54;;;;;;;;;;;;;;;22.27;26.41;97449.94;5101454;28;630;-75
2021/01/23 10:43:20;;;;;;;;;;;;;;;22.21;26.73;97451.00;5101128;28;1979;-76
2021/01/23 10:45:46;;;;;;;;;;;;;;;21.82;27.17;97441.91;5102070;28;673;-75
2021/01/23 10:48:11;;;;;;;;;;;;;;;21.55;27.61;97439.59;5100860;28;872;-76
2021/01/23 10:50:37;;;;;;;;;;;;;;;21.39;27.73;97436.94;5100929;28;796;-75
2021/01/23 10:53:02;;;;;;;;;;;;;;;20.14;27.08;97198.78;5101064;28;960;-75
2021/01/23 10:55:28;;;;;;;;;;;;;;;22.17;26.57;97439.78;5101755;28;689;-75
2021/01/23 10:57:53;;;;;;;;;;;;;;;22.19;26.83;97431.63;5100978;28;653;-75
2021/01/23 11:00:19;;;;;;;;;;;;;;;21.89;26.82;97433.13;5100859;28;987;-74
2021/01/23 11:02:44;;;;;;;;;;;;;;;21.50;27.54;97426.03;5100724;28;860;-75
2021/01/23 11:05:10;;;;;;;;;;;;;;;21.52;27.56;97429.22;5100741;28;1906;-75
2021/01/23 11:07:38;;;;;;;;;;;;;;;21.87;27.30;97426.34;5101101;28;983;-75
2021/01/23 11:10:04;;;;;;;;;;;;;;;22.04;26.96;97424.91;5100867;28;674;-75
2021/01/23 11:12:29;;;;;;;;;;;;;;;22.09;26.59;97427.91;5101282;28;710;-75
2021/01/23 11:14:55;;;;;;;;;;;;;;;22.14;26.77;97429.41;5101022;28;621;-75
2021/01/23 11:17:20;;;;;;;;;;;;;;;21.78;27.29;97419.38;5100600;28;966;-75
2021/01/23 11:19:46;;;;;;;;;;;;;;;21.43;27.71;97421.44;5100510;28;909;-75
2021/01/23 11:22:11;;;;;;;;;;;;;;;21.64;27.74;97417.03;5100464;28;931;-75
2021/01/23 11:24:37;;;;;;;;;;;;;;;22.05;27.00;97393.25;5100470;28;1906;-75
2021/01/23 11:27:02;;;;;;;;;;;;;;;22.09;26.88;97390.31;5100871;28;729;-75
2021/01/23 11:29:28;;;;;;;;;;;;;;;22.30;26.44;97398.00;5100984;28;674;-75
2021/01/23 11:31:53;;;;;;;;;;;;;;;21.94;26.99;97392.88;5100552;28;965;-75
2021/01/23 11:34:18;;;;;;;;;;;;;;;21.51;27.63;97388.00;5100356;28;901;-76
2021/01/23 11:36:44;;;;;;;;;;;;;;;21.22;28.14;97394.63;5100681;28;903;-76
2021/01/23 11:39:09;;;;;;;;;;;;;;;21.66;27.84;97393.94;5100418;28;697;-75
2021/01/23 11:41:41;;;;;;;;;;;;;;;22.11;26.84;97390.66;5099566;28;658;-75
2021/01/23 11:44:07;;;;;;;;;;;;;;;22.25;26.89;97398.59;5100316;28;1971;-75
2021/01/23 11:46:32;;;;;;;;;;;;;;;22.33;26.40;97401.97;5100063;28;978;-75
2021/01/23 11:48:58;;;;;;;;;;;;;;;22.07;26.94;97401.28;5099858;28;916;-76
2021/01/23 11:51:23;;;;;;;;;;;;;;;21.79;27.49;97397.50;5100355;28;882;-75
2021/01/23 11:53:49;;;;;;;;;;;;;;;21.54;27.46;97398.41;5100373;28;590;-75
2021/01/23 11:56:14;;;;;;;;;;;;;;;21.94;27.26;97397.75;5100343;28;686;-75
2021/01/23 11:58:40;;;;;;;;;;;;;;;22.11;27.19;97390.66;5100363;28;594;-75
2021/01/23 12:01:06;;;;;;;;;;;;;;;22.09;27.15;97387.47;5100080;28;1101;-75
2021/01/23 12:03:31;;;;;;;;;;;;;;;21.97;27.10;97382.69;5099981;28;1964;-75
2021/01/23 12:06:03;;;;;;;;;;;;;;;21.68;27.74;97392.22;5100597;28;961;-75
2021/01/23 12:08:28;;;;;;;;;;;;;;;21.32;28.01;97385.00;5100069;28;623;-75
2021/01/23 12:10:54;;;;;;;;;;;;;;;21.69;27.74;97388.13;5101019;28;678;-75
2021/01/23 12:13:19;;;;;;;;;;;;;;;22.04;27.03;97379.56;5100089;28;698;-75
2021/01/23 12:15:45;;;;;;;;;;;;;;;22.18;26.96;97373.38;5100186;28;1058;-75
2021/01/23 12:18:10;;;;;;;;;;;;;;;22.27;26.74;97359.25;5099854;28;932;-75
2021/01/23 12:20:36;;;;;;;;;;;;;;;22.18;26.84;97373.38;5099993;28;868;-75
2021/01/23 12:23:01;;;;;;;;;;;;;;;21.75;27.36;97374.97;5099923;28;1961;-74
2021/01/23 12:25:27;;;;;;;;;;;;;;;21.59;27.56;97369.50;5100318;28;592;-75
2021/01/23 12:27:52;;;;;;;;;;;;;;;21.98;27.22;97367.25;5100002;28;658;-75
2021/01/23 12:30:18;;;;;;;;;;;;;;;22.27;26.91;97370.59;5099581;28;952;-75
2021/01/23 12:32:44;;;;;;;;;;;;;;;22.38;26.71;97369.38;5100105;28;872;-76
2021/01/23 12:35:09;;;;;;;;;;;;;;;21.99;27.18;97371.66;5100247;28;1015;-75
2021/01/23 12:37:45;;;;;;;;;;;;;;;21.58;27.59;97365.09;5099920;28;657;-75
2021/01/23 12:40:11;;;;;;;;;;;;;;;21.48;27.61;97371.94;5099886;28;669;-75
2021/01/23 12:42:37;;;;;;;;;;;;;;;21.97;27.57;97357.19;5099909;28;582;-75
2021/01/23 12:45:02;;;;;;;;;;;;;;;22.01;27.35;97358.59;5099347;28;1976;-75
2021/01/23 12:47:28;;;;;;;;;;;;;;;22.24;26.75;97360.19;5099901;28;807;-75
2021/01/23 12:49:56;;;;;;;;;;;;;;;22.17;26.89;97354.78;5099774;28;928;-75
2021/01/23 12:52:22;;;;;;;;;;;;;;;21.81;27.50;97352.50;5083382;28;1141;-75
2021/01/23 12:54:50;;;;;;;;;;;;;;;21.28;28.22;97341.88;5103503;28;725;-75
2021/01/23 12:57:15;;;;;;;;;;;;;;;21.43;28.27;97338.56;5103879;28;594;-75
2021/01/23 12:59:41;;;;;;;;;;;;;;;22.01;27.27;97347.28;5102940;28;848;-76
2021/01/23 13:02:06;;;;;;;;;;;;;;;22.24;26.81;97348.84;5103137;28;1001;-75
2021/01/23 13:04:32;;;;;;;;;;;;;;;22.27;26.69;97342.25;5103021;28;1969;-75
2021/01/23 13:06:57;;;;;;;;;;;;;;;21.87;27.30;97332.91;5103463;28;621;-75
2021/01/23 13:09:23;;;;;;;;;;;;;;;21.73;27.73;97345.53;5103061;28;642;-76